Khatgal Airport


Codes: HTM/HTM
Name: Khatgal Airport
City: Hatgal
Country: Mongolia
Elevation: 5500 ft.
Wikipedia:

Photos at Khatgal Airport


   Photos courtesy of SpottingLog. You can add your own sightings and photos by signing up for a free trial today.



No photos found.

Weather at Khatgal Airport


Time (UTC)DescriptionTempratureWindCloud coverageVisibilityPressureHumidity
18-Apr-2024 00:00Overcast Clouds-3°C0 mph, W94%10000m1029hPa87%
18-Apr-2024 03:00Broken Clouds0°C2 mph, SW67%10000m1026hPa73%
18-Apr-2024 06:00Scattered Clouds5°C4 mph, NW42%10000m1019hPa46%
18-Apr-2024 09:00Clear Sky6°C4 mph, NW8%10000m1017hPa40%
18-Apr-2024 12:00Clear Sky3°C4 mph, NE4%10000m1018hPa52%
18-Apr-2024 15:00Scattered Clouds1°C2 mph, NW28%10000m1019hPa57%
18-Apr-2024 18:00Broken Clouds2°C2 mph, SW65%10000m1017hPa52%
18-Apr-2024 21:00Overcast Clouds2°C7 mph, SW100%10000m1015hPa46%
19-Apr-2024 00:00Overcast Clouds3°C7 mph, W90%10000m1015hPa53%
19-Apr-2024 03:00Overcast Clouds6°C11 mph, W100%10000m1011hPa39%
19-Apr-2024 06:00Overcast Clouds8°C11 mph, NW100%10000m1009hPa40%
19-Apr-2024 09:00Overcast Clouds8°C16 mph, W100%10000m1007hPa47%
19-Apr-2024 12:00Broken Clouds6°C11 mph, W81%10000m1007hPa55%
19-Apr-2024 15:00Overcast Clouds4°C7 mph, SW95%10000m1007hPa66%
19-Apr-2024 18:00Overcast Clouds3°C7 mph, SW96%10000m1007hPa75%
19-Apr-2024 21:00Overcast Clouds2°C4 mph, SW100%10000m1007hPa79%
20-Apr-2024 00:00Overcast Clouds3°C4 mph, N100%10000m1007hPa70%
20-Apr-2024 03:00Overcast Clouds5°C9 mph, NW100%10000m1006hPa41%
20-Apr-2024 06:00Overcast Clouds4°C9 mph, N100%10000m1006hPa46%
20-Apr-2024 09:00Overcast Clouds3°C18 mph, N100%10000m1009hPa40%
20-Apr-2024 12:00Overcast Clouds1°C27 mph, NW100%10000m1011hPa48%
20-Apr-2024 15:00Broken Clouds-2°C16 mph, NW62%10000m1015hPa52%
20-Apr-2024 18:00Scattered Clouds-3°C4 mph, W31%10000m1017hPa57%
20-Apr-2024 21:00Broken Clouds-4°C4 mph, W74%10000m1017hPa56%
21-Apr-2024 00:00Scattered Clouds-2°C11 mph, NW36%10000m1017hPa40%
21-Apr-2024 03:00Clear Sky-0°C18 mph, NW4%10000m1016hPa33%
21-Apr-2024 06:00Scattered Clouds0°C11 mph, N45%10000m1014hPa30%
21-Apr-2024 09:00Light Snow-1°C20 mph, N100%10000m1015hPa42%
21-Apr-2024 12:00Overcast Clouds-3°C18 mph, N97%10000m1019hPa40%
21-Apr-2024 15:00Overcast Clouds-5°C4 mph, N100%10000m1023hPa45%
21-Apr-2024 18:00Overcast Clouds-6°C2 mph, N100%10000m1025hPa59%
21-Apr-2024 21:00Few Clouds-7°C2 mph, W16%10000m1026hPa64%
22-Apr-2024 00:00Broken Clouds-4°C4 mph, W54%10000m1025hPa45%
22-Apr-2024 03:00Broken Clouds-1°C7 mph, NW79%10000m1022hPa32%
22-Apr-2024 06:00Broken Clouds2°C9 mph, NW57%10000m1018hPa29%
22-Apr-2024 09:00Broken Clouds3°C9 mph, NW59%10000m1014hPa30%
22-Apr-2024 12:00Broken Clouds1°C7 mph, W76%10000m1014hPa41%
22-Apr-2024 15:00Overcast Clouds0°C4 mph, SW88%10000m1014hPa49%
22-Apr-2024 18:00Overcast Clouds0°C7 mph, SW94%10000m1011hPa56%
22-Apr-2024 21:00Overcast Clouds0°C4 mph, W100%10000m1010hPa74%